Terminal Aerodrome Forecast
Issued by NWS

Home | Current Version | Previous Version | Text Only | Print | Product List | Glossary Off
Versions: 1 2 3 4 5 6 7 8 9 10 11 12

000
FTUS42 KMHX 151100 RRA
TAFOAJ
TAF
KOAJ 151149Z 1512/1612 VRB03KT P6SM SKC
     FM160900 19003KT 5SM BR BKN010
      AMD LTD TO CLD VIS AND WIND=

USA.gov is the U.S. government's official web portal to all federal, state and local government web resources and services.